首页
METAR-TAF:

METAR-TAF

机场 :

Wittering, 英格兰

纬度: 52-37N, 经度: 000-28W, 海拔: 84米

当前天气观测

该预报发布于55分钟前的18:50 UTC
风速18节,风向西转西南
温度 6°C
湿度 87%
气压 1010 hPa
能见度10公里或以上

METAR: EGXT 181850Z AUTO 25018KT 9999 FEW070/// BKN130/// BKN170/// 06/04 Q1010

时间: 19:45 (19:45 UTC)

预报

该预报发布于5小时和58分钟前的13:47 UTC
预报有效从18日的 15点(UTC)到 18日的 18点(UTC)
风速17节,风向西南,有时为27节阵风
能见度10公里或以上
多云层高于2600英尺
短暂存在
从 18日的 15点(UTC)到 18日的 18点(UTC)
能見度: 4000
多云层高于1600英尺, 塔状积云.
阵雨
几率 30% :
短暂存在
从 18日的 16点(UTC)到 18日的 18点(UTC)
风速25节,风向西转西南,有时为38节阵风
能見度: 2500
多云层高于1200英尺, 积雨云.
阵雨, 小冰雹或雪球, 大阵雨

TAF: EGXT 181347Z 1815/1818 22017G27KT 9999 BKN026 TEMPO 1815/1818 4000 SHRA BKN016TCU PROB30 TEMPO 1816/1818 25025G38KT 2500 SHGS +SHRA BKN012CB

超过4000个机场的气象观测和天气预报(METAR&TAF报告)。

可查询的气象台以黄色和红色小点在地图上表示。

将鼠标移到小点上方,可查看气象台名称。

然后点击查看天气观测和预报。

如需切换地图:点击带黑十字的绿色按钮放大地图;点击带横线的绿色按钮缩小地图;或者点击绿色箭头查看邻近地区的地图。


METAR-TAF: